Thunder radar more information blitzortung!


Radar de pluja more information rain snow radar


Visita la nostra xarxa de llocs de meteo:

Template documentation
and downloads

And another site



No particular awareness of the weather is required.    There are no Weather-warnings

Pagina Historial Weather Underground text

Diari Resum Setembre 4, 2017 Unitats:  Mètric    Imperial   Tant
« Previous Dia
SegĂźent Dia »
Diari Setmana Mensual Anual Personalitzada
  Maxima: Minima: Media:
Temperatura: 27.4 °C 18.0 °C 23.3 °C
Punt de rosada: 19.1 °C 14.7 °C 16.5 °C
Humitat: 91 % 52 % 67 %
Wind Speed: 22.2 km/h 0.0 km/h 7.3 km/h
RĂ fegues de vent: 22.2 km/h - -
Vent:- - East
Pression baro: 1019.9 hPa 1010.7 hPa -
Precipitacions: 0.0 mm    
Historical Graphs
 
 
Dades de taula per Setembre 4, 2017
Temps Temperatura Punt de rosada Pression baro Vent Wind Speed RĂ fegues de vent Humitat Rainfall Rate (Hourly)
00:00 18.7 °C 16.5 °C 1011.7 hPa Calm   3.2 km/h 87 % 0.0 mm
00:01 20.3 °C 15.5 °C 1012.8 hPa ENE 2.6 km/h 2.6 km/h 74 % 0.0 mm
00:06 20.3 °C 15.5 °C 1012.8 hPa NE 3.9 km/h 3.9 km/h 74 % 0.0 mm
00:10 18.7 °C 16.7 °C 1011.7 hPa Calm   3.2 km/h 88 % 0.0 mm
00:20 18.6 °C 16.6 °C 1011.7 hPa Calm     88 % 0.0 mm
00:30 18.6 °C 16.6 °C 1011.7 hPa NE 1.6 km/h 1.6 km/h 88 % 0.0 mm
00:40 18.5 °C 16.5 °C 1011.7 hPa Calm   3.2 km/h 88 % 0.0 mm
00:50 18.5 °C 16.5 °C 1011.7 hPa SW 3.2 km/h 3.2 km/h 88 % 0.0 mm
01:00 18.5 °C 16.7 °C 1011.7 hPa Calm   1.6 km/h 89 % 0.0 mm
01:10 18.6 °C 16.8 °C 1011.7 hPa Calm   1.6 km/h 89 % 0.0 mm
01:20 18.5 °C 16.5 °C 1011.7 hPa North 1.6 km/h 3.2 km/h 88 % 0.0 mm
01:30 18.4 °C 16.6 °C 1011.7 hPa WSW 1.6 km/h 3.2 km/h 89 % 0.0 mm
01:40 18.5 °C 16.7 °C 1010.7 hPa WSW 1.6 km/h   89 % 0.0 mm
01:50 18.5 °C 16.8 °C 1010.7 hPa Calm   1.6 km/h 90 % 0.0 mm
02:00 18.6 °C 16.9 °C 1011.7 hPa WNW 1.6 km/h 3.2 km/h 90 % 0.0 mm
02:10 18.5 °C 16.8 °C 1011.7 hPa NE 1.6 km/h 3.2 km/h 90 % 0.0 mm
02:20 18.5 °C 16.7 °C 1011.7 hPa NNW 1.6 km/h 3.2 km/h 89 % 0.0 mm
02:30 18.4 °C 16.7 °C 1011.7 hPa Calm     90 % 0.0 mm
02:40 18.4 °C 16.7 °C 1012.8 hPa NNW 1.6 km/h 3.2 km/h 90 % 0.0 mm
02:50 18.5 °C 17.0 °C 1012.8 hPa Calm   3.2 km/h 91 % 0.0 mm
03:00 18.6 °C 17.1 °C 1011.7 hPa ENE 1.6 km/h 3.2 km/h 91 % 0.0 mm
03:10 18.7 °C 17.2 °C 1012.8 hPa Calm     91 % 0.0 mm
03:20 18.8 °C 17.3 °C 1012.8 hPa ENE 1.6 km/h 1.6 km/h 91 % 0.0 mm
03:30 19.0 °C 17.3 °C 1013.8 hPa NE 1.6 km/h 1.6 km/h 90 % 0.0 mm
03:40 19.0 °C 17.3 °C 1013.8 hPa Calm   6.4 km/h 90 % 0.0 mm
03:50 19.3 °C 17.8 °C 1013.8 hPa Calm   3.2 km/h 91 % 0.0 mm
04:00 19.3 °C 17.6 °C 1013.8 hPa NNE 1.6 km/h 4.8 km/h 90 % 0.0 mm
04:10 19.4 °C 17.7 °C 1013.8 hPa NE 1.6 km/h 3.2 km/h 90 % 0.0 mm
04:20 19.6 °C 17.9 °C 1013.8 hPa Calm   3.2 km/h 90 % 0.0 mm
04:30 19.7 °C 18.0 °C 1013.8 hPa Calm   3.2 km/h 90 % 0.0 mm
04:40 20.4 °C 18.5 °C 1013.8 hPa Calm   3.2 km/h 89 % 0.0 mm
04:50 20.8 °C 18.7 °C 1013.8 hPa ENE 3.2 km/h 6.4 km/h 88 % 0.0 mm
05:00 20.8 °C 18.4 °C 1013.8 hPa NE 3.2 km/h 4.8 km/h 86 % 0.0 mm
05:10 21.6 °C 18.6 °C 1013.8 hPa NE 3.2 km/h 4.8 km/h 83 % 0.0 mm
05:20 22.3 °C 19.1 °C 1013.8 hPa North 1.6 km/h 6.4 km/h 82 % 0.0 mm
05:30 22.4 °C 18.4 °C 1013.8 hPa NNE 8.0 km/h 8.0 km/h 78 % 0.0 mm
05:40 22.7 °C 18.4 °C 1014.8 hPa NE 3.2 km/h 6.4 km/h 77 % 0.0 mm
05:50 23.0 °C 18.3 °C 1014.8 hPa NE 4.8 km/h 8.0 km/h 75 % 0.0 mm
05:55 23.2 °C 18.5 °C 1014.8 hPa ENE 3.2 km/h 8.0 km/h 75 % 0.0 mm
10:58 23.3 °C 18.6 °C 1014.8 hPa East 3.9 km/h 3.9 km/h 75 % 0.0 mm
10:59 23.3 °C 18.6 °C 1014.8 hPa East 4.7 km/h 4.7 km/h 75 % 0.0 mm
11:00 23.5 °C 18.8 °C 1014.8 hPa ESE 5.6 km/h 5.6 km/h 75 % 0.0 mm
11:05 23.5 °C 18.6 °C 1014.8 hPa ESE 5.6 km/h 5.6 km/h 74 % 0.0 mm
11:10 23.5 °C 18.4 °C 1014.8 hPa East 5.8 km/h 5.8 km/h 73 % 0.0 mm
11:15 23.7 °C 18.6 °C 1014.8 hPa NE 5.6 km/h 5.6 km/h 73 % 0.0 mm
11:20 23.5 °C 17.7 °C 1014.8 hPa ESE 7.4 km/h 7.4 km/h 70 % 0.0 mm
11:25 23.9 °C 18.1 °C 1014.8 hPa NE 5.6 km/h 5.6 km/h 70 % 0.0 mm
11:30 24.3 °C 18.0 °C 1014.8 hPa NNE 9.3 km/h 9.3 km/h 68 % 0.0 mm
11:35 24.5 °C 17.7 °C 1014.8 hPa East 6.1 km/h 6.1 km/h 66 % 0.0 mm
11:40 24.3 °C 17.3 °C 1014.8 hPa ESE 9.3 km/h 9.3 km/h 65 % 0.0 mm
11:45 24.3 °C 17.3 °C 1014.8 hPa East 5.6 km/h 5.6 km/h 65 % 0.0 mm
11:50 24.6 °C 17.3 °C 1014.8 hPa East 9.3 km/h 9.3 km/h 64 % 0.0 mm
11:55 24.5 °C 17.5 °C 1014.8 hPa NNE 7.9 km/h 7.9 km/h 65 % 0.0 mm
12:00 24.5 °C 17.2 °C 1014.8 hPa ESE 9.3 km/h 9.3 km/h 64 % 0.0 mm
12:05 24.5 °C 17.2 °C 1014.8 hPa ESE 5.6 km/h 5.6 km/h 64 % 0.0 mm
12:10 24.8 °C 17.3 °C 1014.8 hPa South 7.4 km/h 7.4 km/h 63 % 0.0 mm
12:15 24.9 °C 17.1 °C 1014.8 hPa SE 9.5 km/h 9.5 km/h 62 % 0.0 mm
12:20 24.8 °C 17.3 °C 1014.8 hPa ESE 9.7 km/h 9.7 km/h 63 % 0.0 mm
12:25 25.0 °C 16.9 °C 1014.8 hPa ESE 9.3 km/h 9.3 km/h 61 % 0.0 mm
12:30 25.0 °C 16.7 °C 1014.8 hPa ENE 9.3 km/h 9.3 km/h 60 % 0.0 mm
12:35 25.9 °C 17.6 °C 1014.8 hPa ESE 10.0 km/h 10.0 km/h 60 % 0.0 mm
12:40 25.7 °C 17.6 °C 1014.8 hPa ENE 5.6 km/h 5.6 km/h 61 % 0.0 mm
12:45 25.7 °C 17.1 °C 1014.8 hPa East 13.0 km/h 13.0 km/h 59 % 0.0 mm
12:50 25.8 °C 16.6 °C 1014.8 hPa ESE 13.0 km/h 13.0 km/h 57 % 0.0 mm
12:55 25.7 °C 16.8 °C 1014.8 hPa SSW 9.3 km/h 9.3 km/h 58 % 0.0 mm
13:00 25.7 °C 16.8 °C 1014.8 hPa ESE 13.7 km/h 13.7 km/h 58 % 0.0 mm
13:05 25.7 °C 16.8 °C 1014.8 hPa South 5.6 km/h 5.6 km/h 58 % 0.0 mm
13:10 25.8 °C 16.9 °C 1014.8 hPa ESE 9.3 km/h 9.3 km/h 58 % 0.0 mm
13:15 26.2 °C 17.0 °C 1014.8 hPa ESE 11.1 km/h 11.1 km/h 57 % 0.0 mm
13:20 26.0 °C 16.8 °C 1014.8 hPa South 3.7 km/h 3.7 km/h 57 % 0.0 mm
13:25 26.4 °C 17.4 °C 1014.8 hPa ENE 13.0 km/h 13.0 km/h 58 % 0.0 mm
13:30 26.2 °C 17.0 °C 1014.8 hPa ESE 6.9 km/h 6.9 km/h 57 % 0.0 mm
13:35 25.9 °C 16.7 °C 1014.8 hPa ENE 13.0 km/h 13.0 km/h 57 % 0.0 mm
13:40 25.7 °C 16.6 °C 1014.8 hPa ESE 9.3 km/h 9.3 km/h 57 % 0.0 mm
13:45 25.7 °C 16.8 °C 1014.8 hPa ESE 13.0 km/h 13.0 km/h 58 % 0.0 mm
13:50 25.8 °C 16.9 °C 1014.8 hPa ENE 12.2 km/h 12.2 km/h 58 % 0.0 mm
13:55 26.1 °C 16.9 °C 1014.8 hPa ESE 14.8 km/h 14.8 km/h 57 % 0.0 mm
14:00 25.7 °C 16.3 °C 1014.8 hPa ESE 12.2 km/h 12.2 km/h 56 % 0.0 mm
14:05 26.0 °C 16.8 °C 1014.8 hPa ESE 6.4 km/h 6.4 km/h 57 % 0.0 mm
14:10 25.7 °C 16.6 °C 1014.8 hPa SE 18.5 km/h 18.5 km/h 57 % 0.0 mm
14:15 26.1 °C 16.9 °C 1014.8 hPa SSE 7.4 km/h 7.4 km/h 57 % 0.0 mm
14:20 26.2 °C 16.7 °C 1014.8 hPa SE 7.4 km/h 7.4 km/h 56 % 0.0 mm
14:25 26.3 °C 17.1 °C 1014.8 hPa SSE 11.1 km/h 11.1 km/h 57 % 0.0 mm
14:30 26.7 °C 17.2 °C 1014.8 hPa West 11.1 km/h 11.1 km/h 56 % 0.0 mm
14:35 27.2 °C 17.4 °C 1014.8 hPa South 11.1 km/h 11.1 km/h 55 % 0.0 mm
14:40 27.4 °C 17.3 °C 1015.8 hPa South 5.8 km/h 5.8 km/h 54 % 0.0 mm
14:45 27.4 °C 17.3 °C 1015.8 hPa South 11.1 km/h 11.1 km/h 54 % 0.0 mm
14:50 27.3 °C 17.2 °C 1015.8 hPa ESE 9.0 km/h 9.0 km/h 54 % 0.0 mm
14:55 27.2 °C 16.8 °C 1015.8 hPa SW 11.1 km/h 11.1 km/h 53 % 0.0 mm
15:00 26.9 °C 16.8 °C 1015.8 hPa East 22.2 km/h 22.2 km/h 54 % 0.0 mm
15:05 27.1 °C 16.7 °C 1015.8 hPa SSW 9.3 km/h 9.5 km/h 53 % 0.0 mm
15:10 27.2 °C 16.5 °C 1014.8 hPa SSE 13.0 km/h 13.0 km/h 52 % 0.0 mm
15:15 26.8 °C 16.4 °C 1014.8 hPa ESE 13.0 km/h 13.0 km/h 53 % 0.0 mm
15:20 26.6 °C 16.2 °C 1014.8 hPa ESE 18.5 km/h 18.5 km/h 53 % 0.0 mm
15:25 26.1 °C 15.8 °C 1014.8 hPa ESE 14.8 km/h 14.8 km/h 53 % 0.0 mm
15:30 25.9 °C 15.6 °C 1014.8 hPa ESE 14.8 km/h 14.8 km/h 53 % 0.0 mm
15:32 25.9 °C 15.9 °C 1014.8 hPa ESE 13.0 km/h 13.0 km/h 54 % 0.0 mm
15:37 25.9 °C 15.9 °C 1014.8 hPa SE 9.3 km/h 9.3 km/h 54 % 0.0 mm
15:42 26.0 °C 15.9 °C 1014.8 hPa East 14.8 km/h 14.8 km/h 54 % 0.0 mm
15:47 26.3 °C 16.2 °C 1014.8 hPa ESE 11.1 km/h 11.1 km/h 54 % 0.0 mm
15:52 26.5 °C 16.4 °C 1014.8 hPa SE 10.3 km/h 10.3 km/h 54 % 0.0 mm
15:57 26.4 °C 16.3 °C 1015.8 hPa ESE 9.7 km/h 9.7 km/h 54 % 0.0 mm
16:02 26.4 °C 16.3 °C 1015.8 hPa SSE 9.3 km/h 9.3 km/h 54 % 0.0 mm
16:07 26.4 °C 16.3 °C 1015.8 hPa SSE 13.0 km/h 13.0 km/h 54 % 0.0 mm
16:12 26.5 °C 16.4 °C 1014.8 hPa East 13.0 km/h 13.0 km/h 54 % 0.0 mm
16:17 26.5 °C 16.4 °C 1014.8 hPa SE 9.3 km/h 9.3 km/h 54 % 0.0 mm
16:22 26.2 °C 16.2 °C 1014.8 hPa SSE 16.7 km/h 16.7 km/h 54 % 0.0 mm
16:24 26.3 °C 16.2 °C 1015.8 hPa ESE 9.3 km/h 9.3 km/h 54 % 0.0 mm
16:29 26.4 °C 16.3 °C 1015.8 hPa ESE 11.1 km/h 11.1 km/h 54 % 0.0 mm
16:34 26.0 °C 15.9 °C 1015.8 hPa NNE 14.8 km/h 14.8 km/h 54 % 0.0 mm
16:39 25.9 °C 15.9 °C 1014.8 hPa ESE 13.0 km/h 13.0 km/h 54 % 0.0 mm
16:44 25.8 °C 16.1 °C 1014.8 hPa ENE 9.7 km/h 9.7 km/h 55 % 0.0 mm
16:49 26.1 °C 16.3 °C 1014.8 hPa ESE 9.3 km/h 9.3 km/h 55 % 0.0 mm
16:54 26.0 °C 16.3 °C 1015.8 hPa East 9.3 km/h 9.3 km/h 55 % 0.0 mm
16:59 26.0 °C 16.3 °C 1015.8 hPa ENE 9.3 km/h 9.3 km/h 55 % 0.0 mm
17:04 25.6 °C 15.9 °C 1015.8 hPa ESE 18.0 km/h 18.0 km/h 55 % 0.0 mm
17:09 25.6 °C 16.2 °C 1015.8 hPa East 13.0 km/h 13.0 km/h 56 % 0.0 mm
17:14 25.5 °C 16.1 °C 1015.8 hPa ENE 9.3 km/h 9.3 km/h 56 % 0.0 mm
17:19 25.8 °C 16.3 °C 1015.8 hPa SSE 13.0 km/h 13.0 km/h 56 % 0.0 mm
17:24 26.1 °C 16.3 °C 1015.8 hPa South 9.7 km/h 9.7 km/h 55 % 0.0 mm
17:29 26.1 °C 16.3 °C 1015.8 hPa SE 14.8 km/h 14.8 km/h 55 % 0.0 mm
17:34 25.9 °C 16.2 °C 1015.8 hPa South 13.0 km/h 13.0 km/h 55 % 0.0 mm
17:36 26.0 °C 16.3 °C 1015.8 hPa ENE 11.4 km/h 11.4 km/h 55 % 0.0 mm
17:41 26.1 °C 16.3 °C 1015.8 hPa West 11.1 km/h 11.1 km/h 55 % 0.0 mm
17:46 26.2 °C 16.4 °C 1015.8 hPa SSE 14.0 km/h 14.0 km/h 55 % 0.0 mm
17:51 25.8 °C 16.1 °C 1015.8 hPa ENE 13.0 km/h 13.0 km/h 55 % 0.0 mm
17:56 26.2 °C 16.4 °C 1016.8 hPa ENE 7.4 km/h 7.4 km/h 55 % 0.0 mm
18:01 25.6 °C 15.9 °C 1016.8 hPa East 18.5 km/h 18.5 km/h 55 % 0.0 mm
18:06 25.5 °C 16.1 °C 1016.8 hPa East 13.0 km/h 13.0 km/h 56 % 0.0 mm
18:11 25.2 °C 15.8 °C 1015.8 hPa ESE 16.9 km/h 16.9 km/h 56 % 0.0 mm
18:16 25.0 °C 16.2 °C 1015.8 hPa ESE 16.7 km/h 16.7 km/h 58 % 0.0 mm
18:21 24.9 °C 16.3 °C 1015.8 hPa ENE 16.9 km/h 16.9 km/h 59 % 0.0 mm
18:26 24.9 °C 16.3 °C 1015.8 hPa SE 14.8 km/h 14.8 km/h 59 % 0.0 mm
18:31 24.8 °C 16.5 °C 1015.8 hPa SSE 13.0 km/h 13.0 km/h 60 % 0.0 mm
18:36 24.7 °C 16.4 °C 1015.8 hPa SSE 11.1 km/h 11.1 km/h 60 % 0.0 mm
18:41 24.8 °C 16.5 °C 1016.8 hPa ESE 14.8 km/h 14.8 km/h 60 % 0.0 mm
18:46 24.8 °C 16.2 °C 1016.8 hPa ESE 11.1 km/h 11.1 km/h 59 % 0.0 mm
18:51 24.8 °C 16.2 °C 1016.8 hPa ENE 18.5 km/h 18.5 km/h 59 % 0.0 mm
18:56 24.5 °C 15.9 °C 1015.8 hPa ESE 14.8 km/h 14.8 km/h 59 % 0.0 mm
19:01 24.5 °C 16.2 °C 1015.8 hPa ENE 9.3 km/h 9.3 km/h 60 % 0.0 mm
19:06 24.3 °C 16.1 °C 1015.8 hPa East 13.0 km/h 13.0 km/h 60 % 0.0 mm
19:11 24.3 °C 16.1 °C 1015.8 hPa NE 11.1 km/h 11.1 km/h 60 % 0.0 mm
19:16 24.1 °C 15.8 °C 1015.8 hPa ENE 13.0 km/h 13.0 km/h 60 % 0.0 mm
19:21 24.0 °C 15.8 °C 1015.8 hPa East 13.0 km/h 13.0 km/h 60 % 0.0 mm
19:26 24.0 °C 16.0 °C 1016.8 hPa East 13.0 km/h 13.0 km/h 61 % 0.0 mm
19:31 24.0 °C 16.0 °C 1016.8 hPa East 11.1 km/h 11.1 km/h 61 % 0.0 mm
19:36 23.9 °C 16.2 °C 1016.8 hPa ESE 9.5 km/h 9.5 km/h 62 % 0.0 mm
19:41 23.8 °C 16.1 °C 1016.8 hPa SE 13.0 km/h 13.0 km/h 62 % 0.0 mm
19:46 23.7 °C 16.0 °C 1016.8 hPa ESE 7.6 km/h 7.6 km/h 62 % 0.0 mm
19:51 23.7 °C 16.0 °C 1016.8 hPa SE 9.5 km/h 9.5 km/h 62 % 0.0 mm
19:56 23.6 °C 16.2 °C 1016.8 hPa ESE 9.3 km/h 9.3 km/h 63 % 0.0 mm
20:01 23.5 °C 16.1 °C 1016.8 hPa ESE 9.3 km/h 9.3 km/h 63 % 0.0 mm
20:02 23.5 °C 16.1 °C 1016.8 hPa East 7.6 km/h 7.6 km/h 63 % 0.0 mm
20:07 23.4 °C 15.9 °C 1016.8 hPa ESE 9.3 km/h 9.3 km/h 63 % 0.0 mm
20:12 23.3 °C 15.8 °C 1017.8 hPa ESE 9.3 km/h 9.3 km/h 63 % 0.0 mm
20:17 23.3 °C 15.8 °C 1017.8 hPa East 6.4 km/h 6.4 km/h 63 % 0.0 mm
20:22 23.1 °C 15.9 °C 1017.8 hPa ESE 7.4 km/h 7.4 km/h 64 % 0.0 mm
20:27 23.0 °C 15.8 °C 1017.8 hPa ENE 5.6 km/h 5.6 km/h 64 % 0.0 mm
20:32 23.0 °C 15.8 °C 1017.8 hPa East 5.6 km/h 5.6 km/h 64 % 0.0 mm
20:37 22.9 °C 15.7 °C 1017.8 hPa ESE 5.6 km/h 5.6 km/h 64 % 0.0 mm
20:42 22.8 °C 15.6 °C 1017.8 hPa ENE 7.6 km/h 7.6 km/h 64 % 0.0 mm
20:47 22.7 °C 15.6 °C 1017.8 hPa NE 3.7 km/h 3.7 km/h 64 % 0.0 mm
20:52 22.6 °C 15.4 °C 1017.8 hPa ENE 3.9 km/h 3.9 km/h 64 % 0.0 mm
20:57 22.6 °C 15.7 °C 1017.8 hPa ENE 5.6 km/h 5.6 km/h 65 % 0.0 mm
21:02 22.5 °C 15.6 °C 1017.8 hPa NNE 3.7 km/h 3.7 km/h 65 % 0.0 mm
21:07 22.4 °C 15.5 °C 1016.8 hPa ENE 7.4 km/h 7.4 km/h 65 % 0.0 mm
21:12 22.4 °C 15.5 °C 1016.8 hPa ENE 4.2 km/h 4.2 km/h 65 % 0.0 mm
21:17 22.3 °C 15.4 °C 1016.8 hPa ENE 5.6 km/h 5.6 km/h 65 % 0.0 mm
21:22 22.3 °C 15.4 °C 1017.8 hPa NE 7.4 km/h 7.4 km/h 65 % 0.0 mm
21:27 22.2 °C 15.6 °C 1017.8 hPa NNE 3.9 km/h 3.9 km/h 66 % 0.0 mm
21:32 22.1 °C 15.4 °C 1017.8 hPa East 5.6 km/h 5.6 km/h 66 % 0.0 mm
21:37 22.0 °C 15.3 °C 1017.8 hPa ESE 5.6 km/h 5.6 km/h 66 % 0.0 mm
21:42 22.0 °C 15.3 °C 1017.8 hPa NNE 5.6 km/h 5.6 km/h 66 % 0.0 mm
21:47 22.0 °C 15.3 °C 1017.8 hPa ENE 4.2 km/h 4.2 km/h 66 % 0.0 mm
21:52 22.0 °C 15.3 °C 1018.8 hPa NE 5.0 km/h 5.0 km/h 66 % 0.0 mm
21:57 21.9 °C 15.5 °C 1018.8 hPa NE 3.9 km/h 3.9 km/h 67 % 0.0 mm
22:02 21.9 °C 15.5 °C 1018.8 hPa NE 3.7 km/h 3.7 km/h 67 % 0.0 mm
22:07 21.9 °C 15.7 °C 1018.8 hPa NNE 4.7 km/h 4.7 km/h 68 % 0.0 mm
22:12 21.9 °C 15.7 °C 1018.8 hPa NE 3.7 km/h 3.7 km/h 68 % 0.0 mm
22:17 21.8 °C 15.6 °C 1018.8 hPa ENE 3.7 km/h 3.7 km/h 68 % 0.0 mm
22:22 21.7 °C 15.6 °C 1018.8 hPa NNE 1.9 km/h   68 % 0.0 mm
22:27 21.7 °C 15.6 °C 1018.8 hPa NNE 1.9 km/h 1.9 km/h 68 % 0.0 mm
22:32 21.6 °C 15.7 °C 1018.8 hPa NNE 3.7 km/h 3.7 km/h 69 % 0.0 mm
22:37 21.6 °C 15.7 °C 1018.8 hPa Calm     69 % 0.0 mm
22:42 21.5 °C 15.6 °C 1018.8 hPa NNE 1.9 km/h   69 % 0.0 mm
22:47 21.4 °C 15.5 °C 1018.8 hPa NNE 3.7 km/h   69 % 0.0 mm
22:52 21.4 °C 15.5 °C 1018.8 hPa NNE 1.9 km/h   69 % 0.0 mm
22:57 21.3 °C 15.4 °C 1018.8 hPa Calm     69 % 0.0 mm
23:02 21.2 °C 15.5 °C 1018.8 hPa North 1.9 km/h   70 % 0.0 mm
23:07 21.1 °C 15.4 °C 1019.9 hPa Calm     70 % 0.0 mm
23:12 21.0 °C 15.3 °C 1019.9 hPa NNE 1.9 km/h 1.9 km/h 70 % 0.0 mm
23:17 20.9 °C 15.2 °C 1019.9 hPa Calm     70 % 0.0 mm
23:20 18.1 °C 14.8 °C 1018.8 hPa Calm     81 % 0.0 mm
23:22 20.8 °C 15.3 °C 1019.9 hPa Calm     71 % 0.0 mm
23:27 20.8 °C 15.3 °C 1019.9 hPa NNE 1.9 km/h   71 % 0.0 mm
23:30 18.1 °C 14.8 °C 1018.8 hPa Calm     81 % 0.0 mm
23:32 20.7 °C 15.3 °C 1019.9 hPa Calm     71 % 0.0 mm
23:37 20.6 °C 15.2 °C 1018.8 hPa Calm     71 % 0.0 mm
23:40 18.0 °C 14.7 °C 1019.9 hPa Calm     81 % 0.0 mm
23:42 20.5 °C 15.1 °C 1018.8 hPa North 1.9 km/h 1.9 km/h 71 % 0.0 mm
23:47 20.5 °C 15.1 °C 1018.8 hPa Calm     71 % 0.0 mm
23:50 18.1 °C 15.0 °C 1019.9 hPa Calm     82 % 0.0 mm
23:52 20.5 °C 15.1 °C 1019.9 hPa Calm     71 % 0.0 mm
23:57 20.4 °C 15.2 °C 1019.9 hPa Calm     72 % 0.0 mm
Meteo Sesrovires
Elogis d' Weather Underground - 3.75 mb

Guio original per  Jim McMurry - jmcmurry@mwt.net Adaptat per a la plantilla per  Wim van der Kuil - Leuven-Template.eu

Trobareu la nostra informacio del temps tambe a:

Weather Underground

AWEKAS